createdAt,value
2023-04-15T00:00:24.198Z,7.51
2023-04-15T00:01:20.967Z,7.17
2023-04-15T00:02:18.904Z,7.07
2023-04-15T00:03:15.811Z,6.94
2023-04-15T00:04:12.704Z,6.89
2023-04-15T00:05:09.782Z,7.02
2023-04-15T00:06:06.343Z,6.98
2023-04-15T00:07:03.085Z,6.97
2023-04-15T00:08:01.451Z,6.97
2023-04-15T00:08:58.570Z,7.32
2023-04-15T00:09:57.779Z,7.11
2023-04-15T00:10:54.298Z,7.60
2023-04-15T00:11:51.227Z,7.65
2023-04-15T00:12:47.829Z,7.66
2023-04-15T00:13:44.616Z,7.85
2023-04-15T00:14:41.344Z,7.44
2023-04-15T00:15:38.063Z,7.36
2023-04-15T00:16:34.725Z,7.33
2023-04-15T00:17:31.419Z,7.23
2023-04-15T00:18:29.570Z,7.14
2023-04-15T00:19:26.099Z,7.06
2023-04-15T00:20:22.764Z,7.20
2023-04-15T00:21:19.347Z,7.23
2023-04-15T00:22:16.123Z,7.16
2023-04-15T00:23:12.743Z,7.11
2023-04-15T00:24:09.448Z,7.11
2023-04-15T00:25:06.163Z,7.07
2023-04-15T00:26:02.764Z,7.06
2023-04-15T00:27:00.004Z,7.11
2023-04-15T00:27:56.587Z,6.69
2023-04-15T00:28:53.206Z,6.97
2023-04-15T00:29:49.997Z,6.93
2023-04-15T00:30:47.300Z,6.88
2023-04-15T00:31:44.717Z,6.82
2023-04-15T00:32:42.378Z,6.79
2023-04-15T00:33:39.028Z,6.68
2023-04-15T00:34:35.826Z,6.42
2023-04-15T00:35:36.792Z,6.57
2023-04-15T00:36:35.104Z,6.64
2023-04-15T00:37:31.989Z,6.88
2023-04-15T00:38:28.731Z,7.04
2023-04-15T00:39:25.336Z,7.05
2023-04-15T00:40:24.673Z,6.97
2023-04-15T00:41:23.078Z,6.99
2023-04-15T00:42:21.783Z,6.79
2023-04-15T00:43:18.674Z,6.94
2023-04-15T00:44:15.374Z,6.95
2023-04-15T00:45:12.306Z,6.92
2023-04-15T00:46:10.679Z,6.95
2023-04-15T00:47:07.915Z,7.19
2023-04-15T00:48:05.880Z,7.29
2023-04-15T00:49:04.401Z,7.09
2023-04-15T00:50:01.034Z,7.28
2023-04-15T00:50:57.892Z,7.09
2023-04-15T00:51:54.706Z,7.17
2023-04-15T00:52:51.999Z,7.09
2023-04-15T00:53:48.733Z,6.77
2023-04-15T00:54:45.485Z,6.84
2023-04-15T00:55:42.783Z,6.41
2023-04-15T00:56:39.774Z,7.12
2023-04-15T00:57:37.048Z,7.13
2023-04-15T00:58:33.742Z,7.07
2023-04-15T00:59:31.632Z,6.97
2023-04-15T01:00:29.195Z,6.80
2023-04-15T01:01:27.338Z,6.65
2023-04-15T01:02:25.573Z,6.29
2023-04-15T01:03:22.792Z,6.48
2023-04-15T01:04:19.748Z,6.38
2023-04-15T01:05:18.634Z,6.22
2023-04-15T01:06:15.464Z,6.21
2023-04-15T01:07:12.189Z,6.21
2023-04-15T01:08:09.850Z,6.10
2023-04-15T01:09:06.486Z,6.05
2023-04-15T01:10:06.501Z,6.07
2023-04-15T01:11:03.881Z,6.16
2023-04-15T01:12:00.676Z,6.04
2023-04-15T01:12:57.423Z,6.07
2023-04-15T01:13:57.531Z,5.88
2023-04-15T01:14:55.160Z,6.33
2023-04-15T01:15:52.483Z,6.38
2023-04-15T01:16:49.204Z,6.41
2023-04-15T01:17:46.623Z,6.40
2023-04-15T01:18:43.513Z,6.38
2023-04-15T01:19:40.737Z,6.64
2023-04-15T01:20:37.664Z,6.57
2023-04-15T01:21:38.322Z,6.47
2023-04-15T01:22:35.066Z,6.04
2023-04-15T01:23:32.746Z,6.06
2023-04-15T01:24:30.549Z,6.15
2023-04-15T01:25:37.134Z,6.09
2023-04-15T01:26:34.360Z,5.99
2023-04-15T01:27:31.336Z,5.99
2023-04-15T01:28:28.534Z,5.87
2023-04-15T01:29:25.292Z,5.56
2023-04-15T01:30:21.884Z,5.78
2023-04-15T01:31:18.595Z,5.84
2023-04-15T01:32:15.672Z,5.72
2023-04-15T01:33:12.307Z,5.68
2023-04-15T01:34:08.922Z,5.55
2023-04-15T01:35:05.947Z,5.07
2023-04-15T01:36:03.760Z,5.33
2023-04-15T01:37:00.728Z,5.12
2023-04-15T01:38:09.284Z,4.39
2023-04-15T01:39:06.718Z,5.21
2023-04-15T01:40:03.483Z,5.25
2023-04-15T01:41:00.294Z,5.31
2023-04-15T01:41:57.529Z,5.32
2023-04-15T01:42:54.122Z,5.20
2023-04-15T01:43:51.285Z,5.10
2023-04-15T01:44:47.962Z,4.89
2023-04-15T01:45:44.534Z,5.12
2023-04-15T01:46:41.249Z,4.95
2023-04-15T01:47:37.934Z,4.95
2023-04-15T01:48:34.652Z,4.90
2023-04-15T01:49:31.333Z,4.83
2023-04-15T01:50:28.326Z,4.93
2023-04-15T01:51:24.885Z,4.57
2023-04-15T01:52:21.509Z,4.87
2023-04-15T01:53:18.169Z,5.05
2023-04-15T01:54:14.825Z,5.00
2023-04-15T01:55:12.584Z,4.80
2023-04-15T01:56:09.305Z,4.73
2023-04-15T01:57:05.970Z,4.61
2023-04-15T01:58:02.984Z,4.47
2023-04-15T01:58:59.928Z,4.46
2023-04-15T01:59:56.733Z,4.47
2023-04-15T02:00:53.744Z,4.12
2023-04-15T02:01:50.979Z,4.34
2023-04-15T02:02:47.644Z,4.26
2023-04-15T02:03:44.388Z,3.96
2023-04-15T02:04:40.997Z,4.24
2023-04-15T02:05:37.628Z,4.29
2023-04-15T02:06:34.199Z,4.17
2023-04-15T02:07:32.324Z,4.35
2023-04-15T02:08:28.924Z,4.25
2023-04-15T02:09:25.670Z,4.50
2023-04-15T02:10:22.316Z,4.46
2023-04-15T02:11:19.887Z,4.30
2023-04-15T02:12:16.509Z,4.27
2023-04-15T02:13:13.061Z,4.17
2023-04-15T02:14:09.729Z,4.01
2023-04-15T02:15:07.297Z,4.06
2023-04-15T02:16:04.357Z,3.89
2023-04-15T02:17:07.271Z,3.77
2023-04-15T02:18:04.897Z,3.70
2023-04-15T02:19:02.181Z,3.78
2023-04-15T02:19:59.422Z,3.91
2023-04-15T02:20:58.595Z,3.91
2023-04-15T02:21:55.430Z,3.90
2023-04-15T02:22:52.345Z,3.74
2023-04-15T02:23:49.032Z,3.98
2023-04-15T02:24:47.028Z,3.97
2023-04-15T02:25:43.662Z,3.98
2023-04-15T02:26:50.783Z,3.91
2023-04-15T02:27:47.343Z,3.85
2023-04-15T02:28:43.942Z,4.21
2023-04-15T02:29:40.613Z,4.45
2023-04-15T02:30:37.142Z,4.28
2023-04-15T02:31:37.117Z,4.17
2023-04-15T02:32:33.823Z,4.11
2023-04-15T02:33:32.434Z,4.01
2023-04-15T02:34:29.008Z,3.89
2023-04-15T02:35:26.066Z,3.87
2023-04-15T02:36:23.964Z,3.80
2023-04-15T02:37:20.992Z,3.97
2023-04-15T02:38:18.047Z,3.87
2023-04-15T02:39:16.923Z,3.94
2023-04-15T02:40:13.711Z,4.04
2023-04-15T02:41:10.657Z,4.19
2023-04-15T02:42:07.312Z,3.99
2023-04-15T02:43:05.382Z,4.21
2023-04-15T02:44:01.936Z,4.20
2023-04-15T02:44:58.861Z,4.06
2023-04-15T02:45:55.944Z,4.21
2023-04-15T02:46:54.811Z,4.23
2023-04-15T02:47:51.601Z,4.16
2023-04-15T02:48:48.978Z,4.15
2023-04-15T02:49:45.606Z,4.14
2023-04-15T02:50:42.207Z,4.08
2023-04-15T02:51:38.928Z,4.13
2023-04-15T02:52:35.789Z,4.08
2023-04-15T02:53:32.476Z,3.99
2023-04-15T02:54:29.061Z,3.88
2023-04-15T02:55:25.905Z,3.73
2023-04-15T02:56:23.629Z,3.60
2023-04-15T02:57:20.217Z,3.52
2023-04-15T02:58:17.177Z,3.49
2023-04-15T02:59:13.781Z,3.30
2023-04-15T03:00:11.981Z,3.41
2023-04-15T03:01:11.884Z,3.39
2023-04-15T03:02:08.643Z,3.38
2023-04-15T03:03:06.721Z,2.61
2023-04-15T03:04:03.823Z,3.55
2023-04-15T03:05:00.788Z,3.53
2023-04-15T03:05:57.379Z,3.65
2023-04-15T03:06:53.947Z,3.69
2023-04-15T03:07:51.177Z,3.73
2023-04-15T03:08:47.811Z,3.75
2023-04-15T03:09:44.748Z,3.77
2023-04-15T03:10:41.328Z,3.73
2023-04-15T03:11:40.842Z,3.63
2023-04-15T03:12:37.391Z,3.75
2023-04-15T03:13:34.008Z,3.60
2023-04-15T03:14:30.969Z,3.66
2023-04-15T03:15:28.000Z,3.78
2023-04-15T03:16:25.769Z,3.77
2023-04-15T03:17:22.362Z,3.70
2023-04-15T03:18:18.993Z,3.82
2023-04-15T03:19:15.714Z,3.79
2023-04-15T03:20:12.611Z,3.67
2023-04-15T03:21:09.443Z,3.51
2023-04-15T03:22:06.046Z,3.75
2023-04-15T03:23:02.669Z,3.81
2023-04-15T03:23:59.308Z,3.85
2023-04-15T03:24:56.239Z,3.91
2023-04-15T03:25:55.941Z,3.70
2023-04-15T03:26:52.542Z,3.96
2023-04-15T03:27:49.122Z,3.98
2023-04-15T03:28:45.771Z,4.14
2023-04-15T03:29:42.394Z,4.05
2023-04-15T03:30:38.954Z,4.10
2023-04-15T03:31:35.745Z,3.98
2023-04-15T03:32:32.439Z,3.89
2023-04-15T03:33:29.062Z,3.90
2023-04-15T03:34:25.791Z,3.77
2023-04-15T03:35:22.420Z,3.70
2023-04-15T03:36:19.166Z,3.66
2023-04-15T03:37:16.173Z,3.55
2023-04-15T03:38:12.841Z,3.57
2023-04-15T03:39:09.582Z,3.87
2023-04-15T03:40:07.307Z,3.78
2023-04-15T03:41:03.954Z,3.62
2023-04-15T03:42:01.780Z,3.51
2023-04-15T03:42:58.498Z,3.44
2023-04-15T03:43:55.142Z,2.78
2023-04-15T03:44:52.344Z,3.65
2023-04-15T03:45:48.959Z,4.04
2023-04-15T03:46:45.898Z,4.07
2023-04-15T03:47:42.781Z,4.24
2023-04-15T03:48:39.567Z,4.50
2023-04-15T03:49:37.023Z,4.38
2023-04-15T03:50:33.599Z,4.73
2023-04-15T03:51:30.349Z,4.94
2023-04-15T03:52:26.946Z,4.63
2023-04-15T03:53:23.535Z,4.51
2023-04-15T03:54:20.156Z,4.18
2023-04-15T03:55:16.806Z,4.15
2023-04-15T03:56:13.359Z,3.84
2023-04-15T03:57:10.055Z,3.59
2023-04-15T03:58:06.756Z,3.55
2023-04-15T03:59:03.534Z,3.48
2023-04-15T04:00:00.214Z,3.19
2023-04-15T04:00:57.130Z,3.79
2023-04-15T04:01:53.871Z,3.82
2023-04-15T04:02:50.752Z,3.69
2023-04-15T04:03:47.457Z,3.52
2023-04-15T04:04:44.425Z,3.46
2023-04-15T04:05:41.639Z,3.13
2023-04-15T04:06:38.365Z,3.24
2023-04-15T04:07:34.965Z,3.28
2023-04-15T04:08:31.583Z,3.22
2023-04-15T04:09:28.150Z,3.38
2023-04-15T04:10:24.714Z,3.36
2023-04-15T04:11:21.519Z,3.37
2023-04-15T04:12:18.081Z,3.32
2023-04-15T04:13:14.670Z,3.15
2023-04-15T04:14:11.499Z,3.10
2023-04-15T04:15:08.579Z,3.02
2023-04-15T04:16:05.577Z,2.89
2023-04-15T04:17:02.278Z,3.22
2023-04-15T04:17:58.911Z,3.45
2023-04-15T04:18:55.557Z,3.27
2023-04-15T04:19:52.145Z,3.35
2023-04-15T04:20:48.740Z,3.51
2023-04-15T04:21:45.397Z,3.59
2023-04-15T04:22:42.045Z,3.85
2023-04-15T04:23:38.723Z,3.89
2023-04-15T04:24:35.359Z,3.78
2023-04-15T04:25:32.252Z,4.01
2023-04-15T04:26:28.860Z,4.24
2023-04-15T04:27:26.300Z,4.27
2023-04-15T04:28:23.050Z,4.30
2023-04-15T04:29:19.702Z,4.31
2023-04-15T04:30:16.346Z,4.71
2023-04-15T04:31:12.978Z,4.68
2023-04-15T04:32:09.902Z,4.84
2023-04-15T04:33:09.759Z,4.82
2023-04-15T04:34:06.602Z,4.11
2023-04-15T04:35:04.825Z,4.85
2023-04-15T04:36:01.545Z,4.84
2023-04-15T04:36:58.345Z,4.86
2023-04-15T04:37:54.953Z,4.94
2023-04-15T04:38:51.577Z,5.14
2023-04-15T04:39:48.254Z,5.16
2023-04-15T04:40:44.963Z,5.22
2023-04-15T04:41:41.819Z,5.18
2023-04-15T04:42:39.838Z,5.31
2023-04-15T04:43:37.077Z,5.06
2023-04-15T04:44:33.737Z,5.65
2023-04-15T04:45:30.335Z,5.66
2023-04-15T04:46:26.936Z,5.77
2023-04-15T04:47:23.543Z,5.84
2023-04-15T04:48:20.189Z,5.93
2023-04-15T04:49:16.766Z,5.82
2023-04-15T04:50:13.509Z,6.16
2023-04-15T04:51:10.261Z,5.97
2023-04-15T04:52:07.322Z,6.27
2023-04-15T04:53:04.003Z,6.23
2023-04-15T04:54:02.427Z,6.31
2023-04-15T04:55:00.372Z,6.41
2023-04-15T04:55:56.998Z,6.39
2023-04-15T04:56:53.940Z,6.88
2023-04-15T04:57:50.732Z,6.87
2023-04-15T04:58:47.409Z,6.74
2023-04-15T04:59:44.099Z,6.77
2023-04-15T05:00:40.931Z,6.74
2023-04-15T05:01:37.661Z,6.75
2023-04-15T05:02:34.857Z,7.17
2023-04-15T05:03:31.826Z,7.37
2023-04-15T05:04:28.565Z,7.39
2023-04-15T05:05:25.108Z,7.45
2023-04-15T05:06:22.135Z,7.31
2023-04-15T05:07:18.780Z,7.37
2023-04-15T05:08:16.318Z,7.41
2023-04-15T05:09:12.898Z,7.39
2023-04-15T05:10:09.861Z,7.46
2023-04-15T05:11:06.534Z,7.70
2023-04-15T05:12:04.658Z,7.68
2023-04-15T05:13:01.593Z,7.67
2023-04-15T05:14:00.245Z,7.87
2023-04-15T05:14:56.836Z,7.72
2023-04-15T05:15:53.468Z,7.76
2023-04-15T05:16:50.298Z,8.15
2023-04-15T05:17:46.929Z,8.22
2023-04-15T05:18:43.564Z,8.19
2023-04-15T05:19:40.143Z,8.08
2023-04-15T05:20:36.798Z,8.29
2023-04-15T05:21:33.653Z,8.19
2023-04-15T05:22:30.590Z,8.25
2023-04-15T05:23:27.639Z,8.36
2023-04-15T05:24:24.249Z,8.17
2023-04-15T05:25:21.272Z,8.14
2023-04-15T05:26:17.992Z,8.18
2023-04-15T05:27:14.591Z,8.19
2023-04-15T05:28:11.385Z,8.19
2023-04-15T05:29:08.005Z,8.69
2023-04-15T05:30:05.521Z,8.57
2023-04-15T05:31:02.307Z,8.48
2023-04-15T05:31:59.015Z,8.52
2023-04-15T05:32:56.243Z,8.72
2023-04-15T05:33:52.934Z,8.79
2023-04-15T05:34:49.608Z,8.98
2023-04-15T05:35:46.347Z,8.88
2023-04-15T05:36:43.069Z,8.79
2023-04-15T05:37:39.756Z,8.90
2023-04-15T05:38:36.419Z,8.97
2023-04-15T05:39:33.097Z,9.12
2023-04-15T05:40:30.936Z,8.97
2023-04-15T05:41:27.513Z,8.82
2023-04-15T05:42:24.185Z,9.09
2023-04-15T05:43:20.844Z,8.98
2023-04-15T05:44:17.733Z,9.00
2023-04-15T05:45:14.523Z,9.12
2023-04-15T05:46:11.135Z,9.22
2023-04-15T05:47:08.740Z,9.51
2023-04-15T05:48:05.410Z,9.47
2023-04-15T05:49:02.305Z,9.43
2023-04-15T05:49:59.237Z,9.34
2023-04-15T05:50:56.171Z,9.30
2023-04-15T05:51:52.890Z,9.33
2023-04-15T05:52:49.566Z,9.40
2023-04-15T05:53:46.585Z,9.43
2023-04-15T05:54:43.145Z,9.29
2023-04-15T05:55:39.752Z,9.48
2023-04-15T05:56:37.112Z,9.51
2023-04-15T05:57:33.839Z,9.66
2023-04-15T05:58:30.535Z,9.37
2023-04-15T05:59:28.421Z,9.43
2023-04-15T06:00:25.050Z,9.35
2023-04-15T06:01:22.430Z,9.60
2023-04-15T06:02:19.310Z,9.49
2023-04-15T06:03:16.514Z,9.76
2023-04-15T06:04:13.241Z,9.60
2023-04-15T06:05:10.919Z,9.62
2023-04-15T06:06:07.808Z,9.61
2023-04-15T06:07:04.459Z,9.70
2023-04-15T06:08:01.560Z,10.09
2023-04-15T06:08:58.434Z,9.72
2023-04-15T06:09:55.044Z,9.78
2023-04-15T06:10:51.734Z,10.06
2023-04-15T06:11:48.413Z,10.14
2023-04-15T06:12:45.033Z,10.09
2023-04-15T06:13:41.670Z,9.89
2023-04-15T06:14:39.444Z,9.57
2023-04-15T06:15:36.025Z,9.49
2023-04-15T06:16:32.597Z,9.80
2023-04-15T06:17:29.236Z,9.84
2023-04-15T06:18:25.896Z,10.04
2023-04-15T06:19:22.475Z,10.09
2023-04-15T06:20:19.104Z,10.20
2023-04-15T06:21:16.418Z,10.32
2023-04-15T06:22:13.056Z,10.54
2023-04-15T06:23:09.697Z,10.52
2023-04-15T06:24:06.531Z,10.39
2023-04-15T06:25:03.361Z,10.35
2023-04-15T06:25:59.938Z,10.29
2023-04-15T06:26:57.877Z,10.62
2023-04-15T06:27:54.497Z,10.38
2023-04-15T06:28:51.149Z,10.38
2023-04-15T06:29:47.696Z,10.20
2023-04-15T06:30:44.370Z,10.32
2023-04-15T06:31:41.134Z,10.58
2023-04-15T06:32:38.094Z,10.54
2023-04-15T06:33:34.762Z,10.42
2023-04-15T06:34:31.346Z,10.43
2023-04-15T06:35:27.933Z,10.79
2023-04-15T06:36:24.569Z,10.80
2023-04-15T06:37:21.416Z,10.88
2023-04-15T06:38:17.977Z,10.67
2023-04-15T06:39:14.610Z,10.90
2023-04-15T06:40:11.514Z,10.90
2023-04-15T06:41:08.304Z,10.88
2023-04-15T06:42:04.969Z,10.62
2023-04-15T06:43:01.886Z,10.43
2023-04-15T06:43:58.723Z,10.41
2023-04-15T06:44:55.771Z,10.76
2023-04-15T06:45:52.614Z,10.52
2023-04-15T06:46:49.324Z,10.69
2023-04-15T06:47:46.125Z,10.99
2023-04-15T06:48:42.752Z,11.18
2023-04-15T06:49:40.536Z,11.13
2023-04-15T06:50:37.761Z,10.42
2023-04-15T06:51:36.382Z,10.63
2023-04-15T06:52:33.001Z,10.27
2023-04-15T06:53:29.774Z,10.24
2023-04-15T06:54:26.712Z,10.87
2023-04-15T06:55:23.357Z,10.91
2023-04-15T06:56:20.183Z,11.14
2023-04-15T06:57:16.886Z,10.80
2023-04-15T06:58:13.507Z,11.10
2023-04-15T06:59:10.155Z,11.30
2023-04-15T07:00:07.727Z,11.21
2023-04-15T07:01:04.601Z,11.40
2023-04-15T07:02:01.777Z,11.67
2023-04-15T07:02:58.901Z,11.53
2023-04-15T07:03:55.600Z,11.48
2023-04-15T07:04:52.313Z,11.69
2023-04-15T07:05:49.083Z,11.75
2023-04-15T07:06:46.152Z,11.42
2023-04-15T07:07:42.881Z,10.90
2023-04-15T07:08:39.461Z,11.31
2023-04-15T07:09:36.108Z,10.82
2023-04-15T07:10:36.463Z,10.67
2023-04-15T07:11:33.048Z,11.21
2023-04-15T07:12:29.905Z,11.68
2023-04-15T07:13:26.500Z,10.32
2023-04-15T07:14:23.163Z,10.71
2023-04-15T07:15:20.127Z,11.06
2023-04-15T07:16:16.802Z,11.26
2023-04-15T07:17:13.525Z,11.44
2023-04-15T07:18:10.285Z,11.75
2023-04-15T07:19:07.454Z,11.97
2023-04-15T07:20:05.146Z,12.01
2023-04-15T07:21:02.768Z,11.95
2023-04-15T07:21:59.347Z,11.71
2023-04-15T07:22:56.155Z,11.82
2023-04-15T07:23:52.793Z,12.00
2023-04-15T07:24:49.456Z,12.52
2023-04-15T07:25:46.091Z,12.07
2023-04-15T07:26:42.641Z,11.68
2023-04-15T07:27:39.288Z,12.27
2023-04-15T07:28:36.169Z,12.53
2023-04-15T07:29:32.822Z,12.60
2023-04-15T07:30:29.649Z,12.67
2023-04-15T07:31:26.328Z,12.54
2023-04-15T07:32:22.959Z,12.42
2023-04-15T07:33:19.662Z,12.34
2023-04-15T07:34:16.610Z,12.02
2023-04-15T07:35:13.491Z,12.61
2023-04-15T07:36:10.620Z,12.57
2023-04-15T07:37:07.368Z,12.62
2023-04-15T07:38:04.069Z,12.57
2023-04-15T07:39:03.439Z,12.65
2023-04-15T07:40:00.347Z,12.97
2023-04-15T07:40:57.134Z,12.68
2023-04-15T07:41:53.799Z,12.51
2023-04-15T07:42:50.481Z,13.13
2023-04-15T07:43:47.373Z,13.13
2023-04-15T07:44:44.013Z,13.14
2023-04-15T07:45:40.665Z,12.13
2023-04-15T07:46:38.551Z,12.70
2023-04-15T07:47:35.755Z,12.43
2023-04-15T07:48:32.475Z,12.81
2023-04-15T07:49:29.288Z,12.97
2023-04-15T07:50:26.271Z,12.50
2023-04-15T07:51:23.007Z,12.52
2023-04-15T07:52:19.619Z,13.25
2023-04-15T07:53:16.309Z,13.60
2023-04-15T07:54:12.868Z,13.54
2023-04-15T07:55:10.928Z,13.50
2023-04-15T07:56:07.721Z,12.99
2023-04-15T07:57:04.404Z,13.19
2023-04-15T07:58:01.470Z,13.27
2023-04-15T07:58:58.199Z,13.25
2023-04-15T07:59:54.821Z,13.41
2023-04-15T08:00:51.855Z,12.93
2023-04-15T08:01:49.136Z,13.15
2023-04-15T08:02:48.438Z,13.32
2023-04-15T08:03:45.533Z,13.01
2023-04-15T08:04:42.576Z,12.95
2023-04-15T08:05:39.772Z,12.64
2023-04-15T08:06:39.765Z,12.93
2023-04-15T08:07:38.438Z,12.74
2023-04-15T08:08:35.104Z,13.18
2023-04-15T08:09:31.874Z,12.33
2023-04-15T08:10:30.342Z,12.52
2023-04-15T08:11:27.791Z,12.73
2023-04-15T08:12:24.396Z,13.27
2023-04-15T08:13:21.801Z,13.63
2023-04-15T08:14:18.516Z,13.95
2023-04-15T08:15:15.120Z,13.69
2023-04-15T08:16:24.775Z,13.30
2023-04-15T08:17:22.166Z,13.11
2023-04-15T08:18:18.745Z,13.20
2023-04-15T08:19:15.313Z,13.19
2023-04-15T08:20:12.230Z,13.94
2023-04-15T08:21:09.395Z,14.35
2023-04-15T08:22:05.987Z,14.01
2023-04-15T08:23:07.533Z,14.20
2023-04-15T08:24:04.227Z,14.80
2023-04-15T08:25:00.820Z,13.72
2023-04-15T08:25:59.837Z,13.25
2023-04-15T08:26:57.696Z,13.51
2023-04-15T08:27:57.252Z,14.26
2023-04-15T08:28:53.959Z,14.21
2023-04-15T08:29:50.763Z,14.11
2023-04-15T08:30:47.390Z,14.34
2023-04-15T08:31:44.999Z,13.88
2023-04-15T08:32:46.277Z,14.41
2023-04-15T08:33:43.337Z,14.33
2023-04-15T08:34:40.143Z,14.10
2023-04-15T08:35:37.596Z,14.62
2023-04-15T08:36:34.232Z,14.26
2023-04-15T08:37:31.208Z,14.38
2023-04-15T08:38:27.888Z,14.26
2023-04-15T08:39:24.457Z,14.79
2023-04-15T08:40:27.729Z,14.39
2023-04-15T08:41:26.224Z,14.59
2023-04-15T08:42:37.031Z,14.44
2023-04-15T08:43:42.853Z,14.96
2023-04-15T08:44:40.430Z,15.03
2023-04-15T08:45:39.438Z,15.42
2023-04-15T08:46:36.592Z,15.94
2023-04-15T08:47:34.505Z,15.72
2023-04-15T08:48:34.129Z,14.72
2023-04-15T08:49:32.650Z,14.60
2023-04-15T08:50:29.909Z,14.68
2023-04-15T08:51:27.274Z,15.12
2023-04-15T08:52:26.574Z,15.00
2023-04-15T08:53:24.771Z,15.48
2023-04-15T08:54:21.593Z,15.51
2023-04-15T08:55:18.306Z,14.02
2023-04-15T08:56:16.901Z,13.84
2023-04-15T08:57:14.877Z,14.57
2023-04-15T08:58:13.503Z,15.37
2023-04-15T08:59:11.378Z,16.21
2023-04-15T09:00:09.468Z,16.65
2023-04-15T09:01:06.540Z,16.58
2023-04-15T09:02:03.926Z,16.24
2023-04-15T09:03:01.090Z,16.42
2023-04-15T09:03:59.012Z,16.52
2023-04-15T09:04:56.111Z,16.44
2023-04-15T09:05:53.382Z,15.64
2023-04-15T09:06:50.098Z,16.08
2023-04-15T09:07:46.739Z,15.94
2023-04-15T09:08:43.732Z,15.72
2023-04-15T09:09:42.175Z,16.08
2023-04-15T09:10:38.746Z,16.69
2023-04-15T09:11:35.954Z,17.01
2023-04-15T09:12:37.659Z,17.17
2023-04-15T09:13:34.473Z,16.65
2023-04-15T09:14:34.036Z,16.18
2023-04-15T09:15:33.032Z,16.37
2023-04-15T09:16:29.666Z,15.55
2023-04-15T09:17:27.958Z,15.37
2023-04-15T09:18:32.250Z,15.33
2023-04-15T09:19:29.770Z,15.26
2023-04-15T09:20:26.449Z,15.69
2023-04-15T09:21:24.758Z,15.71
2023-04-15T09:22:22.356Z,15.18
2023-04-15T09:23:18.988Z,14.60
2023-04-15T09:24:15.620Z,14.03
2023-04-15T09:25:30.262Z,13.90
2023-04-15T09:26:36.219Z,14.66
2023-04-15T09:27:36.635Z,14.98
2023-04-15T09:28:33.450Z,14.10
2023-04-15T09:29:30.053Z,13.78
2023-04-15T09:30:29.023Z,14.41
2023-04-15T09:31:30.700Z,13.63
2023-04-15T09:32:27.414Z,14.05
2023-04-15T09:33:26.099Z,14.10
2023-04-15T09:34:36.269Z,14.88
2023-04-15T09:35:32.987Z,15.01
2023-04-15T09:36:32.114Z,15.24
2023-04-15T09:37:36.652Z,15.38
2023-04-15T09:38:33.469Z,15.22
2023-04-15T09:39:50.126Z,14.53
2023-04-15T09:40:46.789Z,14.56
2023-04-15T09:41:44.493Z,14.53
2023-04-15T09:43:05.263Z,15.70
2023-04-15T09:44:02.060Z,16.03
2023-04-15T09:45:20.544Z,14.81
2023-04-15T09:46:17.210Z,14.93
2023-04-15T09:47:30.185Z,15.31
2023-04-15T09:48:28.169Z,15.53
2023-04-15T09:49:24.885Z,15.71
2023-04-15T09:50:21.612Z,15.92
2023-04-15T09:51:18.921Z,15.58
2023-04-15T09:52:15.524Z,15.66
2023-04-15T09:53:16.924Z,16.08
2023-04-15T09:54:13.555Z,15.62
2023-04-15T09:55:10.743Z,15.52
2023-04-15T09:56:08.929Z,15.73
2023-04-15T09:57:10.454Z,15.89
2023-04-15T09:58:18.494Z,16.04
2023-04-15T09:59:15.132Z,16.00
2023-04-15T10:00:12.116Z,15.97
2023-04-15T10:01:09.369Z,16.54
2023-04-15T10:02:07.518Z,16.11
2023-04-15T10:03:06.029Z,16.11
2023-04-15T10:04:08.731Z,15.57
2023-04-15T10:05:06.698Z,16.07
2023-04-15T10:06:04.167Z,15.79
2023-04-15T10:07:02.609Z,16.48
2023-04-15T10:08:00.095Z,16.65
2023-04-15T10:08:59.252Z,16.02
2023-04-15T10:09:56.835Z,15.90
2023-04-15T10:10:54.024Z,16.21
2023-04-15T10:11:51.709Z,15.18
2023-04-15T10:12:51.267Z,14.99
2023-04-15T10:13:50.698Z,15.22
2023-04-15T10:14:56.876Z,15.49
2023-04-15T10:16:15.731Z,16.02
2023-04-15T10:17:13.694Z,16.43
2023-04-15T10:18:11.563Z,16.80
2023-04-15T10:19:09.626Z,17.18
2023-04-15T10:20:07.672Z,16.80
2023-04-15T10:21:06.020Z,16.45
2023-04-15T10:22:03.216Z,15.98
2023-04-15T10:23:00.044Z,15.96
2023-04-15T10:23:58.625Z,16.69
2023-04-15T10:24:56.682Z,17.03
2023-04-15T10:25:57.044Z,17.08
2023-04-15T10:26:55.433Z,16.84
2023-04-15T10:27:52.993Z,16.04
2023-04-15T10:28:50.164Z,15.59
2023-04-15T10:29:47.900Z,15.92
2023-04-15T10:30:44.926Z,15.58
2023-04-15T10:31:42.364Z,16.48
2023-04-15T10:32:40.302Z,17.02
2023-04-15T10:33:38.861Z,17.47
2023-04-15T10:34:36.082Z,17.17
2023-04-15T10:35:36.860Z,17.24
2023-04-15T10:36:33.987Z,16.79
2023-04-15T10:37:38.300Z,17.44
2023-04-15T10:38:36.122Z,17.23
2023-04-15T10:39:41.120Z,17.05
2023-04-15T10:40:39.333Z,16.65
2023-04-15T10:41:36.394Z,16.64
2023-04-15T10:42:36.525Z,17.24
2023-04-15T10:43:33.236Z,17.02
2023-04-15T10:44:29.862Z,17.41
2023-04-15T10:45:38.683Z,16.73
2023-04-15T10:46:40.403Z,17.29
2023-04-15T10:47:37.336Z,17.11
2023-04-15T10:48:34.029Z,16.91
2023-04-15T10:49:30.724Z,17.60
2023-04-15T10:50:29.864Z,17.64
2023-04-15T10:51:29.273Z,17.68
2023-04-15T10:52:28.481Z,17.44
2023-04-15T10:53:31.937Z,17.37
2023-04-15T10:54:28.574Z,17.66
2023-04-15T10:55:33.112Z,18.60
2023-04-15T10:56:31.413Z,18.73
2023-04-15T10:57:36.277Z,18.36
2023-04-15T10:58:43.118Z,17.91
2023-04-15T11:00:01.925Z,18.05
2023-04-15T11:01:02.821Z,18.43
2023-04-15T11:02:04.425Z,17.76
2023-04-15T11:03:09.445Z,17.58
2023-04-15T11:04:07.097Z,17.03
2023-04-15T11:05:04.307Z,17.63
2023-04-15T11:06:01.874Z,17.41
2023-04-15T11:07:07.931Z,17.46
2023-04-15T11:08:04.659Z,17.89
2023-04-15T11:09:06.033Z,18.21
2023-04-15T11:10:03.344Z,18.11
2023-04-15T11:11:00.152Z,17.96
2023-04-15T11:12:09.957Z,17.65
2023-04-15T11:13:17.354Z,17.91
2023-04-15T11:14:17.137Z,17.46
2023-04-15T11:15:37.771Z,16.39
2023-04-15T11:16:44.874Z,16.90
2023-04-15T11:17:41.733Z,17.54
2023-04-15T11:18:38.431Z,17.52
2023-04-15T11:19:39.024Z,17.25
2023-04-15T11:20:36.381Z,16.17
2023-04-15T11:21:34.574Z,16.62
2023-04-15T11:22:31.245Z,17.47
2023-04-15T11:23:31.596Z,18.07
2023-04-15T11:24:28.278Z,17.79
2023-04-15T11:25:35.652Z,18.03
2023-04-15T11:26:33.003Z,17.48
2023-04-15T11:27:31.239Z,17.27
2023-04-15T11:28:29.475Z,17.34
2023-04-15T11:29:31.364Z,17.73
2023-04-15T11:30:33.459Z,17.53
2023-04-15T11:31:30.126Z,17.29
2023-04-15T11:32:26.860Z,16.74
2023-04-15T11:33:24.938Z,16.63
2023-04-15T11:34:24.692Z,16.78
2023-04-15T11:35:22.054Z,16.83
2023-04-15T11:36:18.635Z,17.06
2023-04-15T11:37:15.224Z,16.49
2023-04-15T11:38:14.046Z,16.02
2023-04-15T11:39:10.871Z,16.66
2023-04-15T11:40:09.529Z,16.85
2023-04-15T11:41:06.146Z,16.70
2023-04-15T11:42:02.911Z,15.77
2023-04-15T11:43:09.425Z,16.32
2023-04-15T11:44:17.095Z,16.91
2023-04-15T11:45:15.767Z,16.99
2023-04-15T11:46:12.679Z,16.52
2023-04-15T11:47:24.972Z,15.92
2023-04-15T11:48:36.682Z,15.88
2023-04-15T11:49:35.002Z,16.43
2023-04-15T11:50:31.740Z,16.71
2023-04-15T11:51:33.019Z,17.09
2023-04-15T11:52:29.703Z,16.39
2023-04-15T11:53:47.778Z,17.16
2023-04-15T11:54:44.438Z,17.67
2023-04-15T11:55:46.393Z,18.04
2023-04-15T11:56:51.227Z,18.43
2023-04-15T11:57:47.893Z,18.40
2023-04-15T11:58:46.417Z,18.28
2023-04-15T11:59:45.801Z,18.65
2023-04-15T12:00:54.487Z,18.82
2023-04-15T12:01:52.524Z,18.78
2023-04-15T12:02:49.228Z,18.04
2023-04-15T12:03:47.551Z,18.65
2023-04-15T12:04:44.635Z,18.23
2023-04-15T12:06:03.858Z,17.85
2023-04-15T12:07:06.620Z,18.86
2023-04-15T12:08:03.793Z,19.28
2023-04-15T12:09:12.477Z,19.14
2023-04-15T12:10:09.225Z,18.28
2023-04-15T12:11:06.011Z,17.99
2023-04-15T12:12:02.753Z,17.83
2023-04-15T12:12:59.446Z,17.69
2023-04-15T12:14:04.290Z,18.31
2023-04-15T12:15:01.924Z,18.69
2023-04-15T12:15:59.686Z,18.66
2023-04-15T12:17:02.918Z,18.80
2023-04-15T12:17:59.764Z,18.17
2023-04-15T12:18:59.678Z,18.02
2023-04-15T12:19:57.047Z,17.71
2023-04-15T12:20:54.678Z,18.15
2023-04-15T12:21:52.384Z,17.27
2023-04-15T12:22:49.038Z,16.82
2023-04-15T12:24:12.784Z,17.33
2023-04-15T12:25:09.369Z,17.58
2023-04-15T12:26:07.600Z,17.80
2023-04-15T12:27:06.181Z,17.53
2023-04-15T12:28:11.172Z,17.42
2023-04-15T12:29:08.434Z,17.97
2023-04-15T12:30:06.140Z,17.87
2023-04-15T12:31:10.730Z,18.04
2023-04-15T12:32:10.445Z,18.06
2023-04-15T12:33:07.044Z,18.02
2023-04-15T12:34:07.721Z,17.90
2023-04-15T12:35:05.335Z,17.81
2023-04-15T12:36:02.023Z,17.72
2023-04-15T12:36:59.724Z,17.87
2023-04-15T12:37:56.412Z,17.76
2023-04-15T12:38:53.070Z,17.98
2023-04-15T12:39:50.605Z,17.84